Time;durP1;ratioP1;P1;durP2;ratioP2;P2;SDS_P1;SDS_P2;PMS_P1;PMS_P2;Temp;Humidity;BMP_temperature;BMP_pressure;BME280_temperature;BME280_humidity;BME280_pressure;Samples;Min_cycle;Max_cycle;Signal;HPM_P1;HPM_P2
2022/03/11 00:01:18;;;;;;;;;;;;;;;;;;5073460;28;1175;-79
2022/03/11 00:03:43;;;;;;;;;;;;;;;;;;5067865;28;1949;-78
2022/03/11 00:06:08;;;;;;;;;;;;;;;;;;5086393;28;1191;-80
2022/03/11 00:08:34;;;;;;;;;;;;;;;;;;5068462;28;1470;-79
2022/03/11 00:10:59;;;;;;;;;;;;;;;;;;5049420;28;1264;-78
2022/03/11 00:13:24;;;;;;;;;;;;;;;;;;5063934;28;1221;-78
2022/03/11 00:15:50;;;;;;;;;;;;;;;;;;5046536;28;1204;-78
2022/03/11 00:18:16;;;;;;;;;;;;;;;;;;5096538;28;1275;-77
2022/03/11 00:20:44;;;;;;;;;;;;;;;;;;5105201;28;1207;-80
2022/03/11 00:23:10;;;;;;;;;;;;;;;;;;5104029;28;1921;-79
2022/03/11 00:25:35;;;;;;;;;;;;;;;;;;5087613;28;1425;-79
2022/03/11 00:28:00;;;;;;;;;;;;;;;;;;5084896;28;1187;-79
2022/03/11 00:30:29;;;;;;;;;;;;;;;;;;5083252;28;1360;-79
2022/03/11 00:32:54;;;;;;;;;;;;;;;;;;5086497;28;1238;-79
2022/03/11 00:35:21;;;;;;;;;;;;;;;;;;5065760;28;1264;-79
2022/03/11 00:37:46;;;;;;;;;;;;;;;;;;5064940;28;1231;-79
2022/03/11 00:40:13;;;;;;;;;;;;;;;;;;5085178;28;1124;-78
2022/03/11 00:42:38;;;;;;;;;;;;;;;;;;5065989;28;1898;-78
2022/03/11 00:45:04;;;;;;;;;;;;;;;;;;5080556;28;1175;-79
2022/03/11 00:47:29;;;;;;;;;;;;;;;;;;5067121;28;1211;-79
2022/03/11 00:49:54;;;;;;;;;;;;;;;;;;5064384;28;1257;-78
2022/03/11 00:52:20;;;;;;;;;;;;;;;;;;5066640;28;1227;-79
2022/03/11 00:54:46;;;;;;;;;;;;;;;;;;5064366;28;1215;-78
2022/03/11 00:57:11;;;;;;;;;;;;;;;;;;5053980;28;1174;-78
2022/03/11 00:59:36;;;;;;;;;;;;;;;;;;5083018;28;1192;-78
2022/03/11 01:02:02;;;;;;;;;;;;;;;;;;5069119;28;1163;-78
2022/03/11 01:04:27;;;;;;;;;;;;;;;;;;5066601;28;1886;-78
2022/03/11 01:06:52;;;;;;;;;;;;;;;;;;5082116;28;1156;-79
2022/03/11 01:09:17;;;;;;;;;;;;;;;;;;5068227;28;1298;-78
2022/03/11 01:11:47;;;;;;;;;;;;;;;;;;5065231;28;1207;-78
2022/03/11 01:14:12;;;;;;;;;;;;;;;;;;5073782;28;1162;-78
2022/03/11 01:16:37;;;;;;;;;;;;;;;;;;5083861;28;1199;-78
2022/03/11 01:19:02;;;;;;;;;;;;;;;;;;5059742;28;1313;-78
2022/03/11 01:21:28;;;;;;;;;;;;;;;;;;5099507;28;1017;-79
2022/03/11 01:23:56;;;;;;;;;;;;;;;;;;5085182;28;1973;-78
2022/03/11 01:26:26;;;;;;;;;;;;;;;;;;5048543;28;1338;-78
2022/03/11 01:28:52;;;;;;;;;;;;;;;;;;5087495;28;1164;-77
2022/03/11 01:31:19;;;;;;;;;;;;;;;;;;5085479;28;1119;-80
2022/03/11 01:33:48;;;;;;;;;;;;;;;;;;5087920;28;1218;-77
2022/03/11 01:36:14;;;;;;;;;;;;;;;;;;5069014;28;1332;-78
2022/03/11 01:38:39;;;;;;;;;;;;;;;;;;5084645;28;1136;-78
2022/03/11 01:41:05;;;;;;;;;;;;;;;;;;5064731;28;1231;-77
2022/03/11 01:43:30;;;;;;;;;;;;;;;;;;5065471;28;1956;-77
2022/03/11 01:45:56;;;;;;;;;;;;;;;;;;5101272;28;1139;-78
2022/03/11 01:48:22;;;;;;;;;;;;;;;;;;5079629;28;1299;-79
2022/03/11 01:50:56;;;;;;;;;;;;;;;;;;5084828;28;1175;-79
2022/03/11 01:53:21;;;;;;;;;;;;;;;;;;5065620;28;1212;-78
2022/03/11 01:55:49;;;;;;;;;;;;;;;;;;5051049;28;1355;-78
2022/03/11 01:58:16;;;;;;;;;;;;;;;;;;5043260;28;1271;-77
2022/03/11 02:00:41;;;;;;;;;;;;;;;;;;5063126;28;1346;-78
2022/03/11 02:03:09;;;;;;;;;;;;;;;;;;5049010;28;2018;-78
2022/03/11 02:05:34;;;;;;;;;;;;;;;;;;5089235;28;1286;-78
2022/03/11 02:08:00;;;;;;;;;;;;;;;;;;5087429;28;1190;-78
2022/03/11 02:10:26;;;;;;;;;;;;;;;;;;5072748;28;1275;-78
2022/03/11 02:12:52;;;;;;;;;;;;;;;;;;5076510;28;1121;-77
2022/03/11 02:15:17;;;;;;;;;;;;;;;;;;5070197;28;1258;-77
2022/03/11 02:17:42;;;;;;;;;;;;;;;;;;5066504;28;1128;-77
2022/03/11 02:20:08;;;;;;;;;;;;;;;;;;5071535;28;1153;-78
2022/03/11 02:22:36;;;;;;;;;;;;;;;;;;5087677;28;1902;-77
2022/03/11 02:25:04;;;;;;;;;;;;;;;;;;5084803;28;1198;-79
2022/03/11 02:27:33;;;;;;;;;;;;;;;;;;5085076;28;1255;-77
2022/03/11 02:29:59;;;;;;;;;;;;;;;;;;5081838;28;1104;-78
2022/03/11 02:32:24;;;;;;;;;;;;;;;;;;5071493;28;1262;-78
2022/03/11 02:34:56;;;;;;;;;;;;;;;;;;5066081;28;1421;-78
2022/03/11 02:37:21;;;;;;;;;;;;;;;;;;5065595;28;1319;-78
2022/03/11 02:39:46;;;;;;;;;;;;;;;;;;5049502;28;1204;-79
2022/03/11 02:42:11;;;;;;;;;;;;;;;;;;5062652;28;1182;-78
2022/03/11 02:44:38;;;;;;;;;;;;;;;;;;5045377;28;1909;-78
2022/03/11 02:47:04;;;;;;;;;;;;;;;;;;5064980;28;1372;-79
2022/03/11 02:49:29;;;;;;;;;;;;;;;;;;5049179;28;1234;-79
2022/03/11 02:51:58;;;;;;;;;;;;;;;;;;5063622;28;1242;-78
2022/03/11 02:54:24;;;;;;;;;;;;;;;;;;5067590;28;1340;-78
2022/03/11 02:56:54;;;;;;;;;;;;;;;;;;5047305;28;1245;-77
2022/03/11 02:59:19;;;;;;;;;;;;;;;;;;5047348;28;1160;-77
2022/03/11 03:01:45;;;;;;;;;;;;;;;;;;5052009;28;1147;-78
2022/03/11 03:04:11;;;;;;;;;;;;;;;;;;5084548;28;1941;-77
2022/03/11 03:06:36;;;;;;;;;;;;;;;;;;5068920;28;1306;-77
2022/03/11 03:09:02;;;;;;;;;;;;;;;;;;5047249;28;1298;-78
2022/03/11 03:11:28;;;;;;;;;;;;;;;;;;5069519;28;1203;-77
2022/03/11 03:13:54;;;;;;;;;;;;;;;;;;5082740;28;1306;-79
2022/03/11 03:16:23;;;;;;;;;;;;;;;;;;5081441;28;1202;-79
2022/03/11 03:18:49;;;;;;;;;;;;;;;;;;5068314;28;1254;-79
2022/03/11 03:21:14;;;;;;;;;;;;;;;;;;5078893;28;1196;-77
2022/03/11 03:23:39;;;;;;;;;;;;;;;;;;5085032;28;1905;-78
2022/03/11 03:26:05;;;;;;;;;;;;;;;;;;5068142;28;1379;-78
2022/03/11 03:28:30;;;;;;;;;;;;;;;;;;5065028;28;1369;-77
2022/03/11 03:30:56;;;;;;;;;;;;;;;;;;5065606;28;1259;-77
2022/03/11 03:33:21;;;;;;;;;;;;;;;;;;5085487;28;1233;-78
2022/03/11 03:35:47;;;;;;;;;;;;;;;;;;5069328;28;1290;-78
2022/03/11 03:38:12;;;;;;;;;;;;;;;;;;5084612;28;1065;-78
2022/03/11 03:40:37;;;;;;;;;;;;;;;;;;5085096;28;1175;-76
2022/03/11 03:43:02;;;;;;;;;;;;;;;;;;5082181;28;1901;-77
2022/03/11 03:45:28;;;;;;;;;;;;;;;;;;5082003;28;1152;-78
2022/03/11 03:47:54;;;;;;;;;;;;;;;;;;5085428;28;1353;-77
2022/03/11 03:50:20;;;;;;;;;;;;;;;;;;5083675;28;1226;-77
2022/03/11 03:52:46;;;;;;;;;;;;;;;;;;5069936;28;1191;-77
2022/03/11 03:55:11;;;;;;;;;;;;;;;;;;5046222;28;1246;-77
2022/03/11 03:57:36;;;;;;;;;;;;;;;;;;5046468;28;1251;-77
2022/03/11 04:00:02;;;;;;;;;;;;;;;;;;5058146;28;1227;-77
2022/03/11 04:02:28;;;;;;;;;;;;;;;;;;5048129;28;1977;-77
2022/03/11 04:04:53;;;;;;;;;;;;;;;;;;5062300;28;1116;-78
2022/03/11 04:07:18;;;;;;;;;;;;;;;;;;5063336;28;1362;-77
2022/03/11 04:09:43;;;;;;;;;;;;;;;;;;5063834;28;1172;-78
2022/03/11 04:12:09;;;;;;;;;;;;;;;;;;5065535;28;1196;-78
2022/03/11 04:14:34;;;;;;;;;;;;;;;;;;5062170;28;1401;-79
2022/03/11 04:17:03;;;;;;;;;;;;;;;;;;5082794;28;1151;-78
2022/03/11 04:19:28;;;;;;;;;;;;;;;;;;5079949;28;1335;-77
2022/03/11 04:21:53;;;;;;;;;;;;;;;;;;5064547;28;1176;-77
2022/03/11 04:24:19;;;;;;;;;;;;;;;;;;5062592;28;1918;-77
2022/03/11 04:26:44;;;;;;;;;;;;;;;;;;5060966;28;1220;-76
2022/03/11 04:29:13;;;;;;;;;;;;;;;;;;5068743;28;1206;-77
2022/03/11 04:31:39;;;;;;;;;;;;;;;;;;5067795;28;1203;-76
2022/03/11 04:34:04;;;;;;;;;;;;;;;;;;5063825;28;1129;-76
2022/03/11 04:36:31;;;;;;;;;;;;;;;;;;5063485;28;1175;-77
2022/03/11 04:38:56;;;;;;;;;;;;;;;;;;5061631;28;1347;-78
2022/03/11 04:41:23;;;;;;;;;;;;;;;;;;5045092;28;1214;-78
2022/03/11 04:43:49;;;;;;;;;;;;;;;;;;5044753;28;1882;-78
2022/03/11 04:46:14;;;;;;;;;;;;;;;;;;5059998;28;1226;-78
2022/03/11 04:48:41;;;;;;;;;;;;;;;;;;5047100;28;1271;-77
2022/03/11 04:51:06;;;;;;;;;;;;;;;;;;5081034;28;1234;-77
2022/03/11 04:53:31;;;;;;;;;;;;;;;;;;5072951;28;1200;-76
2022/03/11 04:55:56;;;;;;;;;;;;;;;;;;5047620;28;1244;-76
2022/03/11 04:58:22;;;;;;;;;;;;;;;;;;5040322;28;1300;-78
2022/03/11 05:00:47;;;;;;;;;;;;;;;;;;5061834;28;1278;-77
2022/03/11 05:03:12;;;;;;;;;;;;;;;;;;5080272;28;1952;-78
2022/03/11 05:05:37;;;;;;;;;;;;;;;;;;5084359;28;1156;-78
2022/03/11 05:08:03;;;;;;;;;;;;;;;;;;5084551;28;1206;-78
2022/03/11 05:10:29;;;;;;;;;;;;;;;;;;5062528;28;1274;-78
2022/03/11 05:12:54;;;;;;;;;;;;;;;;;;5086134;28;1610;-78
2022/03/11 05:15:21;;;;;;;;;;;;;;;;;;5059381;28;1335;-77
2022/03/11 05:17:46;;;;;;;;;;;;;;;;;;5072114;28;1328;-78
2022/03/11 05:20:11;;;;;;;;;;;;;;;;;;5084617;28;1139;-78
2022/03/11 05:22:37;;;;;;;;;;;;;;;;;;5071830;28;1953;-78
2022/03/11 05:25:03;;;;;;;;;;;;;;;;;;5105162;28;1262;-77
2022/03/11 05:27:28;;;;;;;;;;;;;;;;;;5067910;28;1180;-77
2022/03/11 05:29:54;;;;;;;;;;;;;;;;;;5081499;28;1135;-78
2022/03/11 05:32:20;;;;;;;;;;;;;;;;;;5086963;28;1224;-77
2022/03/11 05:34:46;;;;;;;;;;;;;;;;;;5071124;28;1141;-78
2022/03/11 05:37:11;;;;;;;;;;;;;;;;;;5084969;28;1308;-79
2022/03/11 05:39:36;;;;;;;;;;;;;;;;;;5087358;28;1302;-78
2022/03/11 05:42:02;;;;;;;;;;;;;;;;;;5089717;28;1199;-78
2022/03/11 05:44:29;;;;;;;;;;;;;;;;;;5085049;28;1961;-78
2022/03/11 05:46:55;;;;;;;;;;;;;;;;;;5053325;28;1223;-78
2022/03/11 05:49:21;;;;;;;;;;;;;;;;;;5087410;28;1171;-78
2022/03/11 05:51:46;;;;;;;;;;;;;;;;;;5069417;28;1176;-79
2022/03/11 05:54:11;;;;;;;;;;;;;;;;;;5052586;28;1180;-79
2022/03/11 05:56:39;;;;;;;;;;;;;;;;;;5067842;28;1247;-77
2022/03/11 05:59:06;;;;;;;;;;;;;;;;;;5068036;28;1223;-78
2022/03/11 06:01:31;;;;;;;;;;;;;;;;;;5048447;28;1148;-77
2022/03/11 06:03:57;;;;;;;;;;;;;;;;;;5096917;28;1969;-78
2022/03/11 06:06:22;;;;;;;;;;;;;;;;;;5091264;28;1269;-76
2022/03/11 06:08:47;;;;;;;;;;;;;;;;;;5086684;28;1393;-77
2022/03/11 06:11:13;;;;;;;;;;;;;;;;;;5051183;28;1140;-77
2022/03/11 06:13:38;;;;;;;;;;;;;;;;;;5084187;28;1222;-78
2022/03/11 06:16:04;;;;;;;;;;;;;;;;;;5068811;28;1231;-77
2022/03/11 06:18:29;;;;;;;;;;;;;;;;;;5105824;28;1152;-77
2022/03/11 06:20:56;;;;;;;;;;;;;;;;;;5089990;28;1431;-77
2022/03/11 06:23:21;;;;;;;;;;;;;;;;;;5071469;28;1921;-77
2022/03/11 06:25:46;;;;;;;;;;;;;;;;;;5088253;28;1198;-78
2022/03/11 06:28:14;;;;;;;;;;;;;;;;;;5069009;28;1378;-77
2022/03/11 06:30:40;;;;;;;;;;;;;;;;;;5070593;28;1158;-76
2022/03/11 06:33:06;;;;;;;;;;;;;;;;;;5108332;28;1249;-78
2022/03/11 06:35:32;;;;;;;;;;;;;;;;;;5087577;28;1233;-77
2022/03/11 06:37:57;;;;;;;;;;;;;;;;;;5081897;28;1242;-78
2022/03/11 06:40:22;;;;;;;;;;;;;;;;;;5051250;28;1421;-77
2022/03/11 06:42:49;;;;;;;;;;;;;;;;;;5051189;28;1953;-77
2022/03/11 06:45:15;;;;;;;;;;;;;;;;;;5064001;28;1235;-78
2022/03/11 06:47:40;;;;;;;;;;;;;;;;;;5088326;28;1211;-77
2022/03/11 06:50:06;;;;;;;;;;;;;;;;;;5051178;28;1221;-77
2022/03/11 06:52:31;;;;;;;;;;;;;;;;;;5065918;28;1297;-77
2022/03/11 06:54:56;;;;;;;;;;;;;;;;;;5084859;28;1172;-78
2022/03/11 06:57:22;;;;;;;;;;;;;;;;;;5086391;28;1207;-77
2022/03/11 06:59:48;;;;;;;;;;;;;;;;;;5068585;28;1291;-77
2022/03/11 07:02:14;;;;;;;;;;;;;;;;;;5066728;28;1259;-77
2022/03/11 07:04:39;;;;;;;;;;;;;;;;;;5066757;28;1897;-79
2022/03/11 07:07:05;;;;;;;;;;;;;;;;;;5049939;28;1250;-78
2022/03/11 07:09:30;;;;;;;;;;;;;;;;;;5051576;28;1231;-78
2022/03/11 07:11:57;;;;;;;;;;;;;;;;;;5086930;28;1286;-79
2022/03/11 07:14:23;;;;;;;;;;;;;;;;;;5104442;28;1195;-79
2022/03/11 07:16:51;;;;;;;;;;;;;;;;;;5067481;28;1328;-77
2022/03/11 07:19:16;;;;;;;;;;;;;;;;;;5052647;28;1195;-79
2022/03/11 07:21:41;;;;;;;;;;;;;;;;;;5067372;28;1355;-79
2022/03/11 07:24:07;;;;;;;;;;;;;;;;;;5085107;28;1906;-77
2022/03/11 07:26:32;;;;;;;;;;;;;;;;;;5093783;28;1199;-79
2022/03/11 07:28:58;;;;;;;;;;;;;;;;;;5098933;28;1218;-78
2022/03/11 07:31:23;;;;;;;;;;;;;;;;;;5044810;28;1224;-76
2022/03/11 07:33:48;;;;;;;;;;;;;;;;;;5051288;28;1244;-77
2022/03/11 07:36:17;;;;;;;;;;;;;;;;;;5083522;28;1155;-75
2022/03/11 07:38:43;;;;;;;;;;;;;;;;;;5049054;28;1204;-75
2022/03/11 07:41:11;;;;;;;;;;;;;;;;;;5065339;28;1339;-74
2022/03/11 07:43:36;;;;;;;;;;;;;;;;;;5062604;28;1898;-74
2022/03/11 07:46:02;;;;;;;;;;;;;;;;;;5063805;28;1152;-74
2022/03/11 07:48:27;;;;;;;;;;;;;;;;;;5065445;28;1274;-74
2022/03/11 07:50:52;;;;;;;;;;;;;;;;;;5067026;28;1251;-73
2022/03/11 07:53:19;;;;;;;;;;;;;;;;;;5083855;28;1298;-74
2022/03/11 07:55:45;;;;;;;;;;;;;;;;;;5066870;28;1365;-74
2022/03/11 07:58:13;;;;;;;;;;;;;;;;;;5047100;28;1311;-74
2022/03/11 08:00:41;;;;;;;;;;;;;;;;;;5047041;28;1307;-75
2022/03/11 08:03:09;;;;;;;;;;;;;;;;;;5085693;28;1881;-74
2022/03/11 08:05:34;;;;;;;;;;;;;;;;;;5064676;28;1309;-74
2022/03/11 08:08:00;;;;;;;;;;;;;;;;;;5067379;28;1247;-74
2022/03/11 08:10:25;;;;;;;;;;;;;;;;;;5059713;28;1230;-74
2022/03/11 08:12:53;;;;;;;;;;;;;;;;;;5063888;28;1156;-75
2022/03/11 08:15:19;;;;;;;;;;;;;;;;;;5042824;28;1580;-74
2022/03/11 08:17:44;;;;;;;;;;;;;;;;;;5065678;28;1316;-75
2022/03/11 08:20:10;;;;;;;;;;;;;;;;;;5085520;28;1274;-74
2022/03/11 08:22:35;;;;;;;;;;;;;;;;;;5086394;28;2337;-74
2022/03/11 08:25:01;;;;;;;;;;;;;;;;;;5071394;28;1218;-74
2022/03/11 08:27:26;;;;;;;;;;;;;;;;;;5081640;28;1069;-74
2022/03/11 08:29:51;;;;;;;;;;;;;;;;;;5062061;28;1408;-74
2022/03/11 08:32:23;;;;;;;;;;;;;;;;;;5071105;28;1317;-74
2022/03/11 08:34:53;;;;;;;;;;;;;;;;;;5063556;28;1374;-73
2022/03/11 08:37:28;;;;;;;;;;;;;;;;;;5062443;28;1302;-73
2022/03/11 08:39:53;;;;;;;;;;;;;;;;;;5063274;28;1281;-74
2022/03/11 08:42:22;;;;;;;;;;;;;;;;;;5061080;28;1238;-73
2022/03/11 08:44:47;;;;;;;;;;;;;;;;;;5058516;28;1898;-74
2022/03/11 08:47:13;;;;;;;;;;;;;;;;;;5065769;28;1188;-74
2022/03/11 08:49:38;;;;;;;;;;;;;;;;;;5062661;28;1253;-73
2022/03/11 08:52:04;;;;;;;;;;;;;;;;;;5062609;28;1140;-73
2022/03/11 08:54:29;;;;;;;;;;;;;;;;;;5059654;28;1397;-75
2022/03/11 08:56:55;;;;;;;;;;;;;;;;;;5060334;28;1540;-75
2022/03/11 08:59:49;;;;;;;;;;;;;;;;;;5060420;28;1377;-74
2022/03/11 09:02:15;;;;;;;;;;;;;;;;;;5063818;28;1400;-74
2022/03/11 09:04:41;;;;;;;;;;;;;;;;;;5060639;28;1953;-75
2022/03/11 09:07:06;;;;;;;;;;;;;;;;;;5063346;28;1187;-74
2022/03/11 09:09:32;;;;;;;;;;;;;;;;;;5071288;28;1159;-74
2022/03/11 09:11:57;;;;;;;;;;;;;;;;;;5048105;28;1362;-75
2022/03/11 09:14:24;;;;;;;;;;;;;;;;;;5045577;28;1357;-73
2022/03/11 09:16:49;;;;;;;;;;;;;;;;;;5045971;28;1407;-73
2022/03/11 09:19:14;;;;;;;;;;;;;;;;;;5048610;28;1177;-73
2022/03/11 09:21:40;;;;;;;;;;;;;;;;;;5080829;28;1187;-74
2022/03/11 09:24:06;;;;;;;;;;;;;;;;;;5063775;28;1909;-74
2022/03/11 09:26:31;;;;;;;;;;;;;;;;;;5063124;28;1195;-74
2022/03/11 09:28:57;;;;;;;;;;;;;;;;;;5063578;28;1269;-75
2022/03/11 09:31:31;;;;;;;;;;;;;;;;;;5045625;28;1275;-74
2022/03/11 09:33:57;;;;;;;;;;;;;;;;;;5065441;28;1195;-79
2022/03/11 09:36:26;;;;;;;;;;;;;;;;;;5080439;28;1171;-80
2022/03/11 09:38:51;;;;;;;;;;;;;;;;;;5063537;28;1199;-78
2022/03/11 09:41:37;;;;;;;;;;;;;;;;;;5065086;28;1190;-78
2022/03/11 09:44:02;;;;;;;;;;;;;;;;;;5058782;28;1944;-76
2022/03/11 09:46:28;;;;;;;;;;;;;;;;;;5059240;28;1387;-78
2022/03/11 09:48:53;;;;;;;;;;;;;;;;;;5104090;28;1163;-79
2022/03/11 09:51:25;;;;;;;;;;;;;;;;;;5085922;28;1361;-80
2022/03/11 09:53:51;;;;;;;;;;;;;;;;;;5073763;28;1166;-79
2022/03/11 09:56:18;;;;;;;;;;;;;;;;;;5083957;28;1155;-77
2022/03/11 09:58:43;;;;;;;;;;;;;;;;;;5044850;28;1288;-78
2022/03/11 10:01:09;;;;;;;;;;;;;;;;;;5082274;28;1171;-78
2022/03/11 10:03:34;;;;;;;;;;;;;;;;;;5063024;28;1898;-76
2022/03/11 10:05:59;;;;;;;;;;;;;;;;;;5048384;28;1326;-77
2022/03/11 10:08:34;;;;;;;;;;;;;;;;;;5045980;28;1396;-77
2022/03/11 10:11:21;;;;;;;;;;;;;;;;;;5065778;28;1404;-77
2022/03/11 10:13:47;;;;;;;;;;;;;;;;;;5060479;28;1270;-78
2022/03/11 10:16:31;;;;;;;;;;;;;;;;;;5065820;28;1441;-78
2022/03/11 10:18:57;;;;;;;;;;;;;;;;;;5065204;28;1466;-77
2022/03/11 10:21:29;;;;;;;;;;;;;;;;;;5064022;28;1220;-78
2022/03/11 10:23:54;;;;;;;;;;;;;;;;;;5065148;28;1902;-80
2022/03/11 10:26:30;;;;;;;;;;;;;;;;;;5086880;28;1216;-79
2022/03/11 10:28:56;;;;;;;;;;;;;;;;;;5075484;28;1359;-78
2022/03/11 10:31:28;;;;;;;;;;;;;;;;;;5087717;28;1335;-78
2022/03/11 10:34:10;;;;;;;;;;;;;;;;;;5088374;28;1206;-77
2022/03/11 10:36:35;;;;;;;;;;;;;;;;;;5087213;28;1296;-78
2022/03/11 10:39:33;;;;;;;;;;;;;;;;;;5075284;28;1313;-79
2022/03/11 10:42:18;;;;;;;;;;;;;;;;;;5059321;28;1528;-88
2022/03/11 10:44:56;;;;;;;;;;;;;;;;;;5078096;28;1889;-77
2022/03/11 10:47:23;;;;;;;;;;;;;;;;;;5109487;28;1263;-78
2022/03/11 10:49:49;;;;;;;;;;;;;;;;;;5104108;28;1285;-77
2022/03/11 10:52:14;;;;;;;;;;;;;;;;;;5074238;28;1309;-78
2022/03/11 10:54:41;;;;;;;;;;;;;;;;;;5067945;28;1546;-78
2022/03/11 10:57:10;;;;;;;;;;;;;;;;;;5067716;28;1274;-79
2022/03/11 10:59:36;;;;;;;;;;;;;;;;;;5064580;28;1300;-79
2022/03/11 11:02:02;;;;;;;;;;;;;;;;;;5071332;28;1427;-79
2022/03/11 11:04:28;;;;;;;;;;;;;;;;;;5105918;28;1910;-77
2022/03/11 11:06:54;;;;;;;;;;;;;;;;;;5070824;28;1195;-79
2022/03/11 11:09:22;;;;;;;;;;;;;;;;;;5106488;28;1363;-81
2022/03/11 11:11:48;;;;;;;;;;;;;;;;;;5085838;28;1215;-77
2022/03/11 11:14:13;;;;;;;;;;;;;;;;;;5067561;28;1361;-77
2022/03/11 11:16:40;;;;;;;;;;;;;;;;;;5049898;28;1196;-77
2022/03/11 11:19:10;;;;;;;;;;;;;;;;;;5076819;28;1436;-78
2022/03/11 11:21:36;;;;;;;;;;;;;;;;;;5086894;28;1309;-84
2022/03/11 11:24:01;;;;;;;;;;;;;;;;;;5073488;28;1914;-83
2022/03/11 11:26:35;;;;;;;;;;;;;;;;;;5085918;28;1258;-86
2022/03/11 11:29:00;;;;;;;;;;;;;;;;;;5104274;28;1199;-77
2022/03/11 11:31:26;;;;;;;;;;;;;;;;;;5085459;28;1468;-75
2022/03/11 11:33:52;;;;;;;;;;;;;;;;;;5104302;28;1135;-73
2022/03/11 11:36:36;;;;;;;;;;;;;;;;;;5085958;28;1210;-73
2022/03/11 11:39:03;;;;;;;;;;;;;;;;;;5105542;28;1218;-72
2022/03/11 11:41:35;;;;;;;;;;;;;;;;;;5102506;28;1103;-73
2022/03/11 11:44:04;;;;;;;;;;;;;;;;;;5104230;28;1898;-72
2022/03/11 11:46:38;;;;;;;;;;;;;;;;;;5104058;28;1234;-75
2022/03/11 11:49:05;;;;;;;;;;;;;;;;;;5086703;28;1175;-74
2022/03/11 11:51:36;;;;;;;;;;;;;;;;;;5083633;28;1215;-73
2022/03/11 11:54:08;;;;;;;;;;;;;;;;;;5086379;28;1128;-73
2022/03/11 11:56:44;;;;;;;;;;;;;;;;;;5063612;28;1308;-74
2022/03/11 11:59:16;;;;;;;;;;;;;;;;;;5083578;28;1249;-74
2022/03/11 12:01:56;;;;;;;;;;;;;;;;;;5063962;28;1147;-74
2022/03/11 12:04:25;;;;;;;;;;;;;;;;;;5068615;28;1898;-75
2022/03/11 12:06:57;;;;;;;;;;;;;;;;;;5084720;28;1222;-74
2022/03/11 12:09:38;;;;;;;;;;;;;;;;;;5108301;28;1222;-74
2022/03/11 12:12:43;;;;;;;;;;;;;;;;;;5086937;28;1304;-74
2022/03/11 12:15:09;;;;;;;;;;;;;;;;;;5056415;28;1353;-74
2022/03/11 12:17:38;;;;;;;;;;;;;;;;;;5086549;28;1389;-75
2022/03/11 12:20:23;;;;;;;;;;;;;;;;;;5089457;28;1229;-73
2022/03/11 12:23:05;;;;;;;;;;;;;;;;;;5086752;28;1925;-73
2022/03/11 12:25:45;;;;;;;;;;;;;;;;;;5086246;28;1326;-74
2022/03/11 12:28:18;;;;;;;;;;;;;;;;;;5083422;28;1367;-74
2022/03/11 12:30:46;;;;;;;;;;;;;;;;;;5101637;28;1135;-75
2022/03/11 12:33:14;;;;;;;;;;;;;;;;;;5085872;28;1265;-76
2022/03/11 12:35:40;;;;;;;;;;;;;;;;;;5084799;28;1357;-75
2022/03/11 12:38:13;;;;;;;;;;;;;;;;;;5103223;28;1155;-75
2022/03/11 12:40:39;;;;;;;;;;;;;;;;;;5068752;28;1417;-74
2022/03/11 12:43:16;;;;;;;;;;;;;;;;;;;;;
2022/03/11 12:45:46;;;;;;;;;;;;;;;;;;5080405;28;1036;-75
2022/03/11 12:48:16;;;;;;;;;;;;;;;;;;5082099;28;1160;-74
2022/03/11 12:50:43;;;;;;;;;;;;;;;;;;5081706;28;1108;-74
2022/03/11 12:53:09;;;;;;;;;;;;;;;;;;5064566;28;1273;-75
2022/03/11 12:55:37;;;;;;;;;;;;;;;;;;5084280;28;1083;-76
2022/03/11 12:58:31;;;;;;;;;;;;;;;;;;5043975;28;1200;-75
2022/03/11 13:00:58;;;;;;;;;;;;;;;;;;5080012;28;1112;-75
2022/03/11 13:03:33;;;;;;;;;;;;;;;;;;5086322;28;1957;-76
2022/03/11 13:05:59;;;;;;;;;;;;;;;;;;5083242;28;1368;-75
2022/03/11 13:08:25;;;;;;;;;;;;;;;;;;5082480;28;1120;-75
2022/03/11 13:10:51;;;;;;;;;;;;;;;;;;5064781;28;1199;-75
2022/03/11 13:13:17;;;;;;;;;;;;;;;;;;5060973;28;1223;-76
2022/03/11 13:15:46;;;;;;;;;;;;;;;;;;5045962;28;1179;-75
2022/03/11 13:18:21;;;;;;;;;;;;;;;;;;5083731;28;1117;-75
2022/03/11 13:20:56;;;;;;;;;;;;;;;;;;5063885;28;1524;-76
2022/03/11 13:23:24;;;;;;;;;;;;;;;;;;5063716;28;1939;-75
2022/03/11 13:25:51;;;;;;;;;;;;;;;;;;5086808;28;1203;-75
2022/03/11 13:28:27;;;;;;;;;;;;;;;;;;5079110;28;1164;-75
2022/03/11 13:30:53;;;;;;;;;;;;;;;;;;5081377;28;1168;-75
2022/03/11 13:33:21;;;;;;;;;;;;;;;;;;5085557;28;1313;-75
2022/03/11 13:35:47;;;;;;;;;;;;;;;;;;5066556;28;1234;-76
2022/03/11 13:38:32;;;;;;;;;;;;;;;;;;5086864;28;1217;-76
2022/03/11 13:40:57;;;;;;;;;;;;;;;;;;5103175;28;1145;-75
2022/03/11 13:43:22;;;;;;;;;;;;;;;;;;5101006;28;1944;-75
2022/03/11 13:45:51;;;;;;;;;;;;;;;;;;5073067;28;1303;-75
2022/03/11 13:48:16;;;;;;;;;;;;;;;;;;5086172;28;1211;-75
2022/03/11 13:50:45;;;;;;;;;;;;;;;;;;5069432;28;1251;-75
2022/03/11 13:53:11;;;;;;;;;;;;;;;;;;5055176;28;1132;-78
2022/03/11 13:55:37;;;;;;;;;;;;;;;;;;5071299;28;1175;-75
2022/03/11 13:58:19;;;;;;;;;;;;;;;;;;5079739;28;1179;-76
2022/03/11 14:00:45;;;;;;;;;;;;;;;;;;5065571;28;1183;-76
2022/03/11 14:03:15;;;;;;;;;;;;;;;;;;5089661;28;1943;-76
2022/03/11 14:05:41;;;;;;;;;;;;;;;;;;5109221;28;1127;-74
2022/03/11 14:08:12;;;;;;;;;;;;;;;;;;5106130;28;1044;-74
2022/03/11 14:10:40;;;;;;;;;;;;;;;;;;5072794;28;1227;-75
2022/03/11 14:13:16;;;;;;;;;;;;;;;;;;5086125;28;1183;-73
2022/03/11 14:15:44;;;;;;;;;;;;;;;;;;5089346;28;1100;-75
2022/03/11 14:18:12;;;;;;;;;;;;;;;;;;5086651;28;1155;-75
2022/03/11 14:20:38;;;;;;;;;;;;;;;;;;5089125;28;1322;-76
2022/03/11 14:23:04;;;;;;;;;;;;;;;;;;5105977;28;1973;-77
2022/03/11 14:25:29;;;;;;;;;;;;;;;;;;5089405;28;1671;-75
2022/03/11 14:27:55;;;;;;;;;;;;;;;;;;5104324;28;1155;-77
2022/03/11 14:30:22;;;;;;;;;;;;;;;;;;5069121;28;1255;-75
2022/03/11 14:32:51;;;;;;;;;;;;;;;;;;5072748;28;1252;-75
2022/03/11 14:35:16;;;;;;;;;;;;;;;;;;5084529;28;1344;-75
2022/03/11 14:37:41;;;;;;;;;;;;;;;;;;5065380;28;1446;-74
2022/03/11 14:40:07;;;;;;;;;;;;;;;;;;5084557;28;1124;-74
2022/03/11 14:42:35;;;;;;;;;;;;;;;;;;5085737;28;1253;-73
2022/03/11 14:45:01;;;;;;;;;;;;;;;;;;5066657;28;2318;-75
2022/03/11 14:47:27;;;;;;;;;;;;;;;;;;5074431;28;1322;-74
2022/03/11 14:49:52;;;;;;;;;;;;;;;;;;5047964;28;1193;-75
2022/03/11 14:52:17;;;;;;;;;;;;;;;;;;5050445;28;1275;-75
2022/03/11 14:54:44;;;;;;;;;;;;;;;;;;5062162;28;1414;-75
2022/03/11 14:57:09;;;;;;;;;;;;;;;;;;5057327;28;1243;-75
2022/03/11 14:59:34;;;;;;;;;;;;;;;;;;5047325;28;1563;-75
2022/03/11 15:02:00;;;;;;;;;;;;;;;;;;5064218;28;1183;-77
2022/03/11 15:04:26;;;;;;;;;;;;;;;;;;5067965;28;1922;-76
2022/03/11 15:06:52;;;;;;;;;;;;;;;;;;5066703;28;1430;-75
2022/03/11 15:09:18;;;;;;;;;;;;;;;;;;5068349;28;1136;-75
2022/03/11 15:11:43;;;;;;;;;;;;;;;;;;5065065;28;1372;-75
2022/03/11 15:14:08;;;;;;;;;;;;;;;;;;5064662;28;1349;-75
2022/03/11 15:16:34;;;;;;;;;;;;;;;;;;5065971;28;1159;-75
2022/03/11 15:19:00;;;;;;;;;;;;;;;;;;5067316;28;1161;-74
2022/03/11 15:21:26;;;;;;;;;;;;;;;;;;5064116;28;1176;-76
2022/03/11 15:23:52;;;;;;;;;;;;;;;;;;5049275;28;2078;-75
2022/03/11 15:26:17;;;;;;;;;;;;;;;;;;5063459;28;1286;-73
2022/03/11 15:28:47;;;;;;;;;;;;;;;;;;5099342;28;1155;-75
2022/03/11 15:31:12;;;;;;;;;;;;;;;;;;5064700;28;1483;-76
2022/03/11 15:33:38;;;;;;;;;;;;;;;;;;5050855;28;1185;-75
2022/03/11 15:36:03;;;;;;;;;;;;;;;;;;5084407;28;1338;-76
2022/03/11 15:38:28;;;;;;;;;;;;;;;;;;5049662;28;1220;-76
2022/03/11 15:40:55;;;;;;;;;;;;;;;;;;5091000;28;1164;-76
2022/03/11 15:43:20;;;;;;;;;;;;;;;;;;5047565;28;1917;-75
2022/03/11 15:45:46;;;;;;;;;;;;;;;;;;5049921;28;1180;-77
2022/03/11 15:48:11;;;;;;;;;;;;;;;;;;5060124;28;1179;-75
2022/03/11 15:50:37;;;;;;;;;;;;;;;;;;5088613;28;1231;-73
2022/03/11 15:53:03;;;;;;;;;;;;;;;;;;5092914;28;1167;-80
2022/03/11 15:55:28;;;;;;;;;;;;;;;;;;5103672;28;1183;-76
2022/03/11 15:57:58;;;;;;;;;;;;;;;;;;5068507;28;1166;-77
2022/03/11 16:00:23;;;;;;;;;;;;;;;;;;5084313;28;1219;-74
2022/03/11 16:03:01;;;;;;;;;;;;;;;;;;;;;
2022/03/11 16:05:26;;;;;;;;;;;;;;;;;;5069643;28;1039;-75
2022/03/11 16:07:58;;;;;;;;;;;;;;;;;;5050015;28;1211;-76
2022/03/11 16:10:28;;;;;;;;;;;;;;;;;;5068168;28;1168;-75
2022/03/11 16:12:58;;;;;;;;;;;;;;;;;;5064525;28;1194;-76
2022/03/11 16:15:24;;;;;;;;;;;;;;;;;;5082167;28;1143;-75
2022/03/11 16:17:51;;;;;;;;;;;;;;;;;;5083935;28;1365;-76
2022/03/11 16:20:16;;;;;;;;;;;;;;;;;;5065138;28;1239;-75
2022/03/11 16:22:42;;;;;;;;;;;;;;;;;;5084276;28;1089;-76
2022/03/11 16:25:07;;;;;;;;;;;;;;;;;;5065951;28;1933;-76
2022/03/11 16:27:34;;;;;;;;;;;;;;;;;;5064135;28;1187;-74
2022/03/11 16:29:59;;;;;;;;;;;;;;;;;;5061485;28;1311;-74
2022/03/11 16:32:24;;;;;;;;;;;;;;;;;;5070251;28;1221;-76
2022/03/11 16:34:50;;;;;;;;;;;;;;;;;;5086111;28;1179;-76
2022/03/11 16:37:16;;;;;;;;;;;;;;;;;;5072022;28;1231;-76
2022/03/11 16:39:42;;;;;;;;;;;;;;;;;;5085836;28;1310;-75
2022/03/11 16:42:07;;;;;;;;;;;;;;;;;;5066082;28;1321;-75
2022/03/11 16:44:34;;;;;;;;;;;;;;;;;;5083946;28;1938;-74
2022/03/11 16:47:00;;;;;;;;;;;;;;;;;;5077072;28;1331;-74
2022/03/11 16:49:26;;;;;;;;;;;;;;;;;;5063517;28;1278;-75
2022/03/11 16:51:53;;;;;;;;;;;;;;;;;;5099816;28;1182;-76
2022/03/11 16:54:20;;;;;;;;;;;;;;;;;;5081291;28;1147;-74
2022/03/11 16:56:47;;;;;;;;;;;;;;;;;;5056026;28;1421;-74
2022/03/11 16:59:12;;;;;;;;;;;;;;;;;;5078089;28;1107;-75
2022/03/11 17:01:38;;;;;;;;;;;;;;;;;;5079281;28;1352;-75
2022/03/11 17:04:04;;;;;;;;;;;;;;;;;;5078356;28;1910;-75